Orbital elements of FENGYUN 1C DEB
| Launched | 9 May 1999 |
| Flight ended | – |
| Launch site | Taiyuan Space Center, PRC |
| Owner | People's Republic of China |
| NORAD ID | 33724 |
| Date fetched |
Epoch osculation |
Inc. [°] |
Ecc. | RA asc node [hr] |
Arg Peri. [°] |
Mean anom [°] |
Mean motion [rev/day] |
Abs. mag |
| Date fetched |
Epoch osculation |
Inc. [°] |
Ecc. | RA asc node [hr] |
Arg Peri. [°] |
Mean anom [°] |
Mean motion [rev/day] |
Abs. mag |
| 2026 May 03 17:57 | 2026 Apr 26 19:26:48 | 98.6001 | 0.00282 | 8.5551 | 150.7492 | 22.4610 | 14.19923 | – |
| 2026 May 02 17:57 | 2026 Apr 26 19:26:48 | 98.6001 | 0.00282 | 8.5551 | 150.7492 | 22.4610 | 14.19923 | – |
| 2026 May 01 17:56 | 2026 Apr 26 19:26:48 | 98.6001 | 0.00282 | 8.5551 | 150.7492 | 22.4610 | 14.19923 | – |
| 2026 Apr 30 17:56 | 2026 Apr 26 19:26:48 | 98.6001 | 0.00282 | 8.5551 | 150.7492 | 22.4610 | 14.19923 | – |
| 2026 Apr 29 17:57 | 2026 Apr 23 06:21:52 | 98.6006 | 0.00280 | 8.3254 | 160.7509 | 22.4610 | 14.19923 | – |
| 2026 Apr 28 17:56 | 2026 Apr 23 06:21:52 | 98.6006 | 0.00280 | 8.3254 | 160.7509 | 22.4610 | 14.19923 | – |
| 2026 Apr 27 17:58 | 2026 Apr 23 06:21:52 | 98.6006 | 0.00280 | 8.3254 | 160.7509 | 22.4610 | 14.19923 | – |
| 2026 Apr 26 17:58 | 2026 Apr 23 06:21:52 | 98.6006 | 0.00280 | 8.3254 | 160.7509 | 22.4610 | 14.19923 | – |
| 2026 Apr 25 17:58 | 2026 Apr 23 06:21:52 | 98.6006 | 0.00280 | 8.3254 | 160.7509 | 22.4610 | 14.19923 | – |
| 2026 Apr 24 17:59 | 2026 Apr 23 06:21:52 | 98.6006 | 0.00280 | 8.3254 | 160.7509 | 22.4610 | 14.19923 | – |
| 2026 Apr 23 17:57 | 2026 Apr 18 06:17:11 | 98.6005 | 0.00275 | 8.0011 | 175.0218 | 22.4610 | 14.19923 | – |
| 2026 Apr 22 17:57 | 2026 Apr 18 06:17:11 | 98.6005 | 0.00275 | 8.0011 | 175.0218 | 22.4610 | 14.19923 | – |
| 2026 Apr 21 17:57 | 2026 Apr 18 06:17:11 | 98.6005 | 0.00275 | 8.0011 | 175.0218 | 22.4610 | 14.19923 | – |
| 2026 Apr 20 17:57 | 2026 Apr 18 06:17:11 | 98.6005 | 0.00275 | 8.0011 | 175.0218 | 22.4610 | 14.19923 | – |
| 2026 Apr 19 17:58 | 2026 Apr 18 06:17:11 | 98.6005 | 0.00275 | 8.0011 | 175.0218 | 22.4610 | 14.19923 | – |
| 2026 Apr 18 17:56 | 2026 Apr 12 06:32:51 | 98.6012 | 0.00272 | 7.6130 | 192.2547 | 22.4610 | 14.19923 | – |
| 2026 Apr 16 17:57 | 2026 Apr 12 06:32:51 | 98.6012 | 0.00272 | 7.6130 | 192.2547 | 22.4610 | 14.19923 | – |
| 2026 Apr 14 17:57 | 2026 Apr 12 06:32:51 | 98.6012 | 0.00272 | 7.6130 | 192.2547 | 22.4610 | 14.19923 | – |
| 2026 Apr 13 17:57 | 2026 Apr 12 06:32:51 | 98.6012 | 0.00272 | 7.6130 | 192.2547 | 22.4610 | 14.19923 | – |
| 2026 Apr 12 17:57 | 2026 Apr 08 07:35:35 | 98.6008 | 0.00267 | 7.3565 | 203.8786 | 22.4610 | 14.19923 | – |
| 2026 Apr 11 17:57 | 2026 Apr 08 07:35:35 | 98.6008 | 0.00267 | 7.3565 | 203.8786 | 22.4610 | 14.19923 | – |
| 2026 Apr 10 17:58 | 2026 Apr 08 07:35:35 | 98.6008 | 0.00267 | 7.3565 | 203.8786 | 22.4610 | 14.19923 | – |
| 2026 Apr 09 18:01 | 2026 Apr 08 07:35:35 | 98.6008 | 0.00267 | 7.3565 | 203.8786 | 22.4610 | 14.19923 | – |
| 2026 Apr 08 17:57 | 2026 Apr 08 07:35:35 | 98.6008 | 0.00267 | 7.3565 | 203.8786 | 22.4610 | 14.19923 | – |
| 2026 Apr 07 17:57 | 2026 Apr 01 19:06:02 | 98.6017 | 0.00265 | 6.9340 | 223.2945 | 22.4610 | 14.19923 | – |
| 2026 Apr 06 17:57 | 2026 Apr 01 19:06:02 | 98.6017 | 0.00265 | 6.9340 | 223.2945 | 22.4610 | 14.19923 | – |